Airfield :







YOU CAN JOIN US ON...

 
LOGIN :

Register | Disclaimer

   EN    FR    IT 

 









Legend :    VFR   Marginal VFR   IFR   Intensive IFR   Very Intensive IFR
Visi :
Ceiling :
>= 8 km
>= 3000ft
5 to 8 km
1000 to 3000 ft
1500m to 5 km
500 to 1000 ft
800 to 1500m
200 to 500 ft
< 800m
< 200 ft
Symbols :   Thunderstorms  Fog  Heavy snow  Heavy precipitations  Wind > 20 kt






- Airport Elevation : 534 ft
- IATA code : PQI


KPQI - Northern Maine Regional Arpt At Presque Isle

CURRENT METAR :
  • 251556Z AUTO 35003KT 10SM FEW009 OVC017 M05/M06 A3037 RMK AO2 SNE01 SLP325 P0000 T10501061

EXPIRED METARs :
  • 251534Z AUTO 00000KT 10SM BKN009 OVC019 M06/M07 A3039 RMK AO2 SNE01 P0000
  • 251456Z AUTO 00000KT 9SM -SN FEW010 OVC019 M07/M08 A3041 RMK AO2 SNE21B51 SLP337 P0000 60000 T10721083 57002
  • 251441Z AUTO 00000KT 10SM SCT006 BKN010 OVC017 M08/M10 A3041 RMK AO2 SNE21 P0000
  • 251356Z AUTO 00000KT 6SM -SN BR OVC006 M10/M11 A3041 RMK AO2 SNB55 SLP340 P0000 T11001111

TAF KPQI
Valid from the 25 at 13:00 until the 26 at 12:00 UTC


251250Z 2513/2612 VRB03KT P6SM OVC008
FM251900 14005KT P6SM OVC025
FM260700 09010KT 2SM -SN OVC009
FM261000 09012KT 2SM -FZRA OVC007



MET'MAP, your aeronautical weather chart ! - Copyright ORBIFLY December 2007 - Disclaimer

ORBIFLY MET'MAP TEAM :

Programming & Development : Alexandra Zaïnal
Concept & original design : Baudouin d'Aumeries
Assistance for programming : Marc-Olivier Méhu
Technical & hardware support : Manuel Goepfert

Contact : metmap@orbifly.com




SOURCES & CREDITS :

   NOAA